Time;durP1;ratioP1;P1;durP2;ratioP2;P2;SDS_P1;SDS_P2;PMS_P1;PMS_P2;Temp;Humidity;BMP_temperature;BMP_pressure;BME280_temperature;BME280_humidity;BME280_pressure;Samples;Min_cycle;Max_cycle;Signal;HPM_P1;HPM_P2
2024/01/09 00:00:34;;;;;;;14.40;10.52;;;-0.30;98.30;;;;;;4198115;28;20047;-68
2024/01/09 00:02:37;;;;;;;16.23;10.35;;;-0.30;98.30;;;;;;4198235;28;20446;-69
2024/01/09 00:04:40;;;;;;;14.50;10.23;;;-0.40;98.00;;;;;;4197590;28;20044;-69
2024/01/09 00:06:42;;;;;;;15.93;10.68;;;-0.30;98.10;;;;;;4197516;28;20040;-68
2024/01/09 00:08:44;;;;;;;17.75;10.02;;;-0.30;98.00;;;;;;4198131;28;20051;-69
2024/01/09 00:10:47;;;;;;;15.25;9.68;;;-0.30;98.10;;;;;;4197930;28;20052;-69
2024/01/09 00:12:49;;;;;;;18.02;10.23;;;-0.40;97.80;;;;;;4197882;28;20064;-68
2024/01/09 00:14:51;;;;;;;16.92;10.23;;;-0.40;97.90;;;;;;4199428;28;20127;-68
2024/01/09 00:16:55;;;;;;;13.65;9.65;;;-0.40;97.70;;;;;;4198741;28;20100;-67
2024/01/09 00:18:57;;;;;;;12.35;9.10;;;-0.40;97.70;;;;;;4200489;28;20041;-67
2024/01/09 00:21:01;;;;;;;14.23;10.10;;;-0.30;97.50;;;;;;4200199;28;20044;-67
2024/01/09 00:23:03;;;;;;;15.07;9.98;;;-0.30;97.50;;;;;;4200488;28;20044;-66
2024/01/09 00:25:07;;;;;;;13.75;8.57;;;-0.30;97.30;;;;;;4199684;28;20131;-68
2024/01/09 00:27:09;;;;;;;12.90;8.95;;;-0.40;97.00;;;;;;4199382;28;20056;-67
2024/01/09 00:29:11;;;;;;;15.82;9.40;;;-0.40;97.10;;;;;;4200145;28;20053;-67
2024/01/09 00:31:13;;;;;;;13.43;8.95;;;-0.40;97.40;;;;;;4181285;28;20049;-67
2024/01/09 00:33:17;;;;;;;13.75;8.80;;;-0.40;97.20;;;;;;4198316;28;20093;-67
2024/01/09 00:35:19;;;;;;;13.13;9.50;;;-0.40;97.30;;;;;;4198838;28;20494;-66
2024/01/09 00:37:22;;;;;;;15.13;8.43;;;-0.50;97.20;;;;;;4199221;28;20096;-67
2024/01/09 00:39:24;;;;;;;11.05;8.27;;;-0.40;97.00;;;;;;4200831;28;20045;-68
2024/01/09 00:41:26;;;;;;;12.88;8.63;;;-0.40;97.00;;;;;;4200430;28;20094;-68
2024/01/09 00:43:28;;;;;;;13.38;9.15;;;-0.40;96.90;;;;;;4198608;28;20049;-69
2024/01/09 00:45:30;;;;;;;12.80;8.43;;;-0.40;97.00;;;;;;4199204;28;20136;-68
2024/01/09 00:47:32;;;;;;;13.88;8.25;;;-0.50;96.60;;;;;;4198095;28;20053;-68
2024/01/09 00:49:36;;;;;;;14.10;8.20;;;-0.50;96.70;;;;;;4201570;28;20112;-68
2024/01/09 00:51:41;;;;;;;12.20;8.63;;;-0.50;97.00;;;;;;4201376;28;20123;-68
2024/01/09 00:53:43;;;;;;;16.25;8.93;;;-0.50;96.80;;;;;;4203294;28;20173;-68
2024/01/09 00:55:46;;;;;;;11.93;7.70;;;-0.50;96.70;;;;;;4200946;28;20131;-68
2024/01/09 00:57:48;;;;;;;13.63;8.80;;;-0.50;96.70;;;;;;4185148;28;20048;-68
2024/01/09 00:59:51;;;;;;;11.65;7.88;;;-0.50;96.90;;;;;;4200825;28;20051;-68
2024/01/09 01:01:53;;;;;;;14.13;8.65;;;-0.50;96.50;;;;;;4201604;28;20480;-68
2024/01/09 01:03:55;;;;;;;13.48;8.68;;;-0.50;96.70;;;;;;4200283;28;20127;-69
2024/01/09 01:06:01;;;;;;;;;;;-0.50;96.80;;;;;;4200770;28;20051;-68
2024/01/09 01:08:04;;;;;;;13.10;8.43;;;-0.50;96.80;;;;;;4200280;28;19928;-67
2024/01/09 01:10:06;;;;;;;10.85;7.82;;;-0.50;96.80;;;;;;4182837;28;20049;-66
2024/01/09 01:12:08;;;;;;;13.27;8.38;;;-0.50;96.70;;;;;;4182360;28;20051;-68
2024/01/09 01:14:10;;;;;;;14.30;8.27;;;-0.40;96.70;;;;;;4200534;28;20044;-67
2024/01/09 01:16:13;;;;;;;14.70;8.32;;;-0.40;96.40;;;;;;4199711;28;20032;-67
2024/01/09 01:18:15;;;;;;;12.63;8.40;;;-0.40;96.70;;;;;;4200454;28;20132;-67
2024/01/09 01:20:17;;;;;;;11.30;8.02;;;-0.40;96.40;;;;;;4200319;28;20072;-67
2024/01/09 01:22:22;;;;;;;13.40;7.93;;;-0.40;96.50;;;;;;4200367;28;20052;-67
2024/01/09 01:24:24;;;;;;;12.95;7.55;;;-0.40;96.80;;;;;;4201277;28;20045;-67
2024/01/09 01:26:26;;;;;;;12.77;8.27;;;-0.40;96.50;;;;;;4201522;28;20066;-68
2024/01/09 01:28:28;;;;;;;14.85;8.32;;;-0.40;96.30;;;;;;4201733;28;20048;-67
2024/01/09 01:30:31;;;;;;;10.65;6.93;;;-0.40;96.20;;;;;;4183735;28;20198;-67
2024/01/09 01:32:33;;;;;;;11.23;7.45;;;-0.50;95.80;;;;;;4201689;28;20044;-67
2024/01/09 01:34:36;;;;;;;11.07;7.82;;;-0.50;96.20;;;;;;4201592;28;20055;-67
2024/01/09 01:36:39;;;;;;;10.50;7.20;;;-0.50;96.10;;;;;;4201290;28;20044;-68
2024/01/09 01:38:43;;;;;;;10.43;7.05;;;-0.50;96.20;;;;;;4200026;28;20041;-67
2024/01/09 01:40:45;;;;;;;10.40;6.80;;;-0.50;96.10;;;;;;4199962;28;20052;-67
2024/01/09 01:42:49;;;;;;;8.70;5.63;;;-0.50;96.10;;;;;;4182431;28;20049;-67
2024/01/09 01:44:54;;;;;;;11.95;7.95;;;-0.50;95.60;;;;;;4199614;28;20488;-66
2024/01/09 01:46:58;;;;;;;13.02;7.03;;;-0.50;96.20;;;;;;4182368;28;20156;-68
2024/01/09 01:49:01;;;;;;;11.75;7.68;;;-0.50;96.30;;;;;;4199838;28;20040;-67
2024/01/09 01:51:04;;;;;;;11.32;7.55;;;-0.50;95.90;;;;;;4200008;28;20052;-67
2024/01/09 01:53:07;;;;;;;11.52;6.97;;;-0.60;95.50;;;;;;4200224;28;20049;-66
2024/01/09 01:55:12;;;;;;;12.48;7.53;;;-0.60;95.80;;;;;;4199363;28;20051;-67
2024/01/09 01:57:14;;;;;;;14.27;7.60;;;-0.60;95.90;;;;;;4183306;28;20102;-66
2024/01/09 01:59:19;;;;;;;13.60;7.03;;;-0.60;95.80;;;;;;4183309;28;20484;-66
2024/01/09 02:01:23;;;;;;;12.13;6.93;;;-0.60;96.20;;;;;;4183048;28;20095;-67
2024/01/09 02:03:25;;;;;;;13.20;7.93;;;-0.60;95.90;;;;;;4182765;28;20045;-67
2024/01/09 02:05:29;;;;;;;11.27;6.88;;;-0.70;96.30;;;;;;4182723;28;20124;-66
2024/01/09 02:07:33;;;;;;;11.55;7.13;;;-0.60;95.90;;;;;;4182590;28;20081;-67
2024/01/09 02:09:53;;;;;;;9.80;6.82;;;-0.70;95.90;;;;;;4182767;28;20040;-66
2024/01/09 02:11:57;;;;;;;11.50;7.47;;;-0.70;95.90;;;;;;4182722;28;20055;-66
2024/01/09 02:13:59;;;;;;;12.27;7.60;;;-0.70;96.00;;;;;;4182147;28;20496;-66
2024/01/09 02:16:01;;;;;;;14.13;7.45;;;-0.70;96.20;;;;;;4182625;28;20049;-65
2024/01/09 02:18:04;;;;;;;11.95;7.07;;;-0.70;96.20;;;;;;4182720;28;20049;-66
2024/01/09 02:20:11;;;;;;;12.73;7.40;;;-0.70;96.30;;;;;;4182714;28;20051;-66
2024/01/09 02:22:16;;;;;;;15.05;7.82;;;-0.70;96.10;;;;;;4182178;28;20045;-67
2024/01/09 02:24:19;;;;;;;9.93;7.10;;;-0.70;96.10;;;;;;4182571;28;20136;-67
2024/01/09 02:26:29;;;;;;;12.45;7.00;;;-0.70;96.10;;;;;;4182483;28;20124;-67
2024/01/09 02:28:44;;;;;;;10.77;7.18;;;-0.70;96.20;;;;;;4164570;28;20393;-67
2024/01/09 02:30:49;;;;;;;10.55;7.07;;;-0.70;96.40;;;;;;4183715;28;20048;-67
2024/01/09 02:32:52;;;;;;;11.15;7.13;;;-0.60;96.50;;;;;;4184703;28;20059;-67
2024/01/09 02:34:55;;;;;;;11.05;7.07;;;-0.70;96.20;;;;;;4183041;28;20041;-66
2024/01/09 02:36:57;;;;;;;10.00;6.90;;;-0.70;95.90;;;;;;4183054;28;20079;-67
2024/01/09 02:38:59;;;;;;;11.27;7.00;;;-0.70;95.80;;;;;;4182969;28;20045;-67
2024/01/09 02:41:01;;;;;;;10.02;7.38;;;-0.70;95.90;;;;;;4182881;28;20045;-66
2024/01/09 02:43:03;;;;;;;11.32;7.60;;;-0.70;96.20;;;;;;4182527;28;20118;-66
2024/01/09 02:45:06;;;;;;;10.70;7.03;;;-0.70;96.40;;;;;;4183069;28;20040;-66
2024/01/09 02:47:09;;;;;;;9.05;6.25;;;-0.70;96.10;;;;;;4182342;28;20072;-65
2024/01/09 02:49:11;;;;;;;11.07;7.03;;;-0.70;96.00;;;;;;4182213;28;20385;-65
2024/01/09 02:51:16;;;;;;;12.40;7.30;;;-0.70;96.10;;;;;;4181819;28;20071;-67
2024/01/09 02:53:18;;;;;;;7.20;4.70;;;-0.70;96.20;;;;;;4181832;28;20445;-68
2024/01/09 02:55:20;;;;;;;11.40;7.10;;;-0.70;96.20;;;;;;4183857;28;20053;-67
2024/01/09 02:57:22;;;;;;;9.02;6.32;;;-0.70;96.00;;;;;;4197949;28;20041;-66
2024/01/09 02:59:26;;;;;;;10.60;7.22;;;-0.70;96.10;;;;;;4198752;28;20044;-67
2024/01/09 03:01:31;;;;;;;12.88;6.80;;;-0.70;95.90;;;;;;4181141;28;20531;-68
2024/01/09 03:03:34;;;;;;;13.77;8.23;;;-0.80;95.90;;;;;;4198091;28;20068;-66
2024/01/09 03:05:37;;;;;;;11.43;7.38;;;-0.80;96.20;;;;;;4198002;28;20055;-67
2024/01/09 03:07:39;;;;;;;11.73;7.53;;;-0.70;96.10;;;;;;4198177;28;20090;-67
2024/01/09 03:09:43;;;;;;;11.60;7.28;;;-0.80;95.90;;;;;;4197987;28;20048;-66
2024/01/09 03:11:45;;;;;;;13.60;8.00;;;-0.80;95.80;;;;;;4197793;28;20459;-66
2024/01/09 03:13:47;;;;;;;12.20;7.28;;;-0.80;95.80;;;;;;4197650;28;20507;-67
2024/01/09 03:15:49;;;;;;;10.75;7.22;;;-0.80;95.80;;;;;;4198057;28;20093;-67
2024/01/09 03:17:51;;;;;;;13.45;7.47;;;-0.80;96.00;;;;;;4198109;28;20045;-65
2024/01/09 03:19:55;;;;;;;11.43;7.00;;;-0.80;96.00;;;;;;4198356;28;20060;-65
2024/01/09 03:21:57;;;;;;;11.18;6.80;;;-0.80;95.80;;;;;;4198546;28;20108;-65
2024/01/09 03:23:59;;;;;;;12.40;7.68;;;-0.80;95.70;;;;;;4198652;28;20049;-65
2024/01/09 03:26:01;;;;;;;9.82;6.55;;;-0.90;95.80;;;;;;4199947;28;20072;-69
2024/01/09 03:28:04;;;;;;;11.82;6.80;;;-0.90;95.80;;;;;;4198368;28;20076;-67
2024/01/09 03:30:07;;;;;;;12.75;6.90;;;-0.90;95.80;;;;;;4199876;28;20055;-67
2024/01/09 03:32:10;;;;;;;15.52;8.70;;;-0.90;95.80;;;;;;4181372;28;20544;-67
2024/01/09 03:34:12;;;;;;;12.48;7.75;;;-0.90;96.10;;;;;;4198662;28;20109;-67
2024/01/09 03:36:16;;;;;;;15.23;8.50;;;-0.80;96.00;;;;;;4198393;28;20048;-66
2024/01/09 03:38:19;;;;;;;13.70;7.20;;;-0.90;95.80;;;;;;4180478;28;20127;-67
2024/01/09 03:40:21;;;;;;;11.88;7.95;;;-0.90;96.00;;;;;;4198063;28;20074;-68
2024/01/09 03:42:23;;;;;;;10.75;7.20;;;-0.90;96.00;;;;;;4198156;28;20476;-65
2024/01/09 03:44:25;;;;;;;11.77;7.53;;;-0.90;95.90;;;;;;4198383;28;20044;-64
2024/01/09 03:46:27;;;;;;;9.95;7.47;;;-0.90;96.00;;;;;;4180679;28;20045;-64
2024/01/09 03:48:29;;;;;;;14.07;7.88;;;-0.80;96.00;;;;;;4198068;28;20095;-65
2024/01/09 03:50:31;;;;;;;11.10;7.30;;;-0.80;95.80;;;;;;4198379;28;20045;-66
2024/01/09 03:52:35;;;;;;;11.50;7.40;;;-0.90;95.90;;;;;;4197921;28;20068;-67
2024/01/09 03:54:37;;;;;;;9.27;6.63;;;-0.90;96.00;;;;;;4197641;28;20456;-67
2024/01/09 03:56:39;;;;;;;11.80;7.40;;;-0.90;96.10;;;;;;4179457;28;20056;-64
2024/01/09 03:58:42;;;;;;;11.10;7.03;;;-0.90;96.00;;;;;;4197573;28;20098;-67
2024/01/09 04:00:45;;;;;;;12.00;7.50;;;-0.90;95.90;;;;;;4197674;28;20083;-66
2024/01/09 04:02:49;;;;;;;12.52;7.15;;;-0.90;96.00;;;;;;4197437;28;20407;-68
2024/01/09 04:04:51;;;;;;;11.70;6.50;;;-0.90;96.00;;;;;;4197480;28;20044;-67
2024/01/09 04:06:53;;;;;;;13.50;6.97;;;-0.90;96.30;;;;;;4197448;28;20417;-66
2024/01/09 04:08:57;;;;;;;12.93;8.02;;;-0.90;96.10;;;;;;4197373;28;20051;-65
2024/01/09 04:11:02;;;;;;;10.98;7.22;;;-1.00;96.20;;;;;;4197027;28;20064;-64
2024/01/09 04:13:06;;;;;;;10.57;7.43;;;-0.90;96.20;;;;;;4196813;28;20499;-65
2024/01/09 04:15:09;;;;;;;11.55;7.43;;;-1.00;95.90;;;;;;4197395;28;20105;-65
2024/01/09 04:17:11;;;;;;;13.35;7.53;;;-1.00;96.10;;;;;;4197656;28;20067;-64
2024/01/09 04:19:15;;;;;;;11.55;7.32;;;-1.00;96.20;;;;;;4197489;28;20479;-64
2024/01/09 04:21:17;;;;;;;13.43;8.55;;;-1.00;96.40;;;;;;4197790;28;20040;-65
2024/01/09 04:23:19;;;;;;;13.73;7.50;;;-0.90;96.60;;;;;;4197062;28;20114;-65
2024/01/09 04:25:23;;;;;;;14.38;7.63;;;-0.90;96.20;;;;;;4200314;28;20049;-68
2024/01/09 04:27:25;;;;;;;11.15;7.45;;;-0.90;96.30;;;;;;4181175;28;20076;-68
2024/01/09 04:29:27;;;;;;;12.88;7.30;;;-0.90;96.20;;;;;;4197172;28;20094;-67
2024/01/09 04:31:30;;;;;;;11.40;6.97;;;-0.90;96.10;;;;;;4197253;28;20051;-67
2024/01/09 04:33:32;;;;;;;13.70;8.00;;;-0.90;96.30;;;;;;4196973;28;20075;-67
2024/01/09 04:35:34;;;;;;;10.45;7.05;;;-0.90;96.20;;;;;;4196911;28;20048;-67
2024/01/09 04:37:37;;;;;;;14.93;8.25;;;-0.90;96.30;;;;;;4197023;28;20056;-68
2024/01/09 04:39:40;;;;;;;12.70;7.70;;;-0.90;96.30;;;;;;4197372;28;20048;-66
2024/01/09 04:41:44;;;;;;;14.32;7.97;;;-0.80;96.30;;;;;;4197408;28;20072;-67
2024/01/09 04:43:47;;;;;;;13.73;7.82;;;-0.80;96.30;;;;;;4197494;28;20049;-67
2024/01/09 04:45:49;;;;;;;12.50;8.05;;;-0.90;96.30;;;;;;4197548;28;20071;-67
2024/01/09 04:47:52;;;;;;;13.23;7.78;;;-0.90;96.30;;;;;;4197035;28;20180;-67
2024/01/09 04:49:54;;;;;;;12.77;8.15;;;-0.90;96.30;;;;;;4196749;28;20048;-67
2024/01/09 04:51:56;;;;;;;11.57;7.63;;;-0.90;96.40;;;;;;4197278;28;20045;-66
2024/01/09 04:53:58;;;;;;;11.38;7.70;;;-0.90;96.60;;;;;;4196826;28;20153;-67
2024/01/09 04:56:01;;;;;;;13.88;8.35;;;-0.90;96.40;;;;;;4197133;28;20127;-66
2024/01/09 04:58:04;;;;;;;13.32;8.20;;;-1.00;96.40;;;;;;4197294;28;20408;-66
2024/01/09 05:00:09;;;;;;;9.85;6.88;;;-1.00;96.40;;;;;;4197499;28;20072;-66
2024/01/09 05:02:11;;;;;;;13.48;8.15;;;-1.00;96.50;;;;;;4197534;28;20041;-67
2024/01/09 05:04:13;;;;;;;13.35;7.82;;;-0.90;96.50;;;;;;4197511;28;20048;-67
2024/01/09 05:06:16;;;;;;;15.32;8.10;;;-0.90;96.60;;;;;;4197480;28;20385;-68
2024/01/09 05:08:21;;;;;;;12.25;8.30;;;-0.90;96.60;;;;;;4198364;28;20434;-68
2024/01/09 05:10:43;;;;;;;12.25;7.97;;;-0.90;96.50;;;;;;4199645;28;20109;-69
2024/01/09 05:13:13;;;;;;;13.60;8.18;;;-0.90;96.70;;;;;;4193689;28;20534;-66
2024/01/09 05:15:15;;;;;;;12.55;6.50;;;-0.90;96.70;;;;;;4198187;28;20059;-67
2024/01/09 05:17:19;;;;;;;13.48;9.23;;;-0.90;96.60;;;;;;4180463;28;20053;-66
2024/01/09 05:19:21;;;;;;;11.95;8.40;;;-0.90;96.60;;;;;;4180756;28;20048;-68
2024/01/09 05:21:24;;;;;;;12.23;8.10;;;-0.90;96.60;;;;;;4199417;28;20040;-67
2024/01/09 05:23:25;;;;;;;13.70;7.93;;;-0.90;96.70;;;;;;4199943;28;20112;-67
2024/01/09 05:25:28;;;;;;;13.02;8.85;;;-0.90;96.80;;;;;;4199701;28;20056;-67
2024/01/09 05:27:30;;;;;;;14.35;9.15;;;-0.90;96.90;;;;;;4182403;28;20048;-67
2024/01/09 05:29:36;;;;;;;15.38;8.70;;;-0.90;96.80;;;;;;4198772;28;20052;-67
2024/01/09 05:31:44;;;;;;;14.90;9.15;;;-0.90;96.70;;;;;;4198622;28;20048;-67
2024/01/09 05:33:47;;;;;;;15.60;9.20;;;-0.80;96.70;;;;;;4198019;28;20104;-68
2024/01/09 05:35:49;;;;;;;14.48;9.65;;;-0.90;96.60;;;;;;4199799;28;20462;-66
2024/01/09 05:37:52;;;;;;;18.10;9.93;;;-0.90;96.50;;;;;;4199551;28;20048;-66
2024/01/09 05:40:04;;;;;;;13.85;9.50;;;-0.90;96.60;;;;;;4199708;28;20122;-66
2024/01/09 05:42:06;;;;;;;16.75;9.00;;;-0.90;96.60;;;;;;4199655;28;20041;-67
2024/01/09 05:44:08;;;;;;;14.13;9.32;;;-0.90;96.50;;;;;;4199813;28;20052;-67
2024/01/09 05:46:12;;;;;;;13.40;9.18;;;-0.90;96.50;;;;;;4181904;28;20045;-68
2024/01/09 05:48:14;;;;;;;16.23;9.15;;;-0.90;96.60;;;;;;4199637;28;20404;-67
2024/01/09 05:50:18;;;;;;;17.73;9.40;;;-0.90;96.40;;;;;;4199598;28;20044;-67
2024/01/09 05:52:20;;;;;;;14.88;9.30;;;-0.90;96.40;;;;;;4199365;28;20044;-67
2024/01/09 05:54:23;;;;;;;16.30;10.40;;;-0.80;96.40;;;;;;4199788;28;20495;-67
2024/01/09 05:56:25;;;;;;;17.33;10.20;;;-0.80;96.20;;;;;;4181639;28;20049;-67
2024/01/09 05:58:28;;;;;;;15.65;10.07;;;-0.80;96.30;;;;;;4199166;28;20079;-67
2024/01/09 06:00:30;;;;;;;14.43;9.75;;;-0.80;96.00;;;;;;4199357;28;20098;-66
2024/01/09 06:05:04;;;;;;;16.35;10.20;;;-0.80;96.30;;;;;;4185434;28;20483;-67
2024/01/09 06:07:06;;;;;;;18.42;10.27;;;-0.80;96.10;;;;;;4199683;28;20049;-68
2024/01/09 06:09:09;;;;;;;17.58;10.20;;;-0.80;96.00;;;;;;4199258;28;20415;-67
2024/01/09 06:11:11;;;;;;;16.63;10.35;;;-0.80;96.20;;;;;;4199705;28;20045;-67
2024/01/09 06:13:13;;;;;;;17.33;10.18;;;-0.80;96.20;;;;;;4199705;28;20052;-65
2024/01/09 06:15:15;;;;;;;15.82;9.88;;;-0.80;96.10;;;;;;4199618;28;20056;-66
2024/01/09 06:17:18;;;;;;;15.90;10.38;;;-0.80;96.00;;;;;;4201143;28;20128;-66
2024/01/09 06:19:26;;;;;;;15.85;10.93;;;-0.90;96.10;;;;;;4185716;28;20049;-67
2024/01/09 06:21:28;;;;;;;16.38;10.57;;;-0.80;96.30;;;;;;4183478;28;20412;-67
2024/01/09 06:23:30;;;;;;;17.55;10.73;;;-0.90;95.90;;;;;;4199661;28;20075;-67
2024/01/09 06:25:32;;;;;;;22.17;11.93;;;-0.90;96.10;;;;;;4199323;28;20071;-67
2024/01/09 06:27:34;;;;;;;22.13;11.20;;;-0.80;96.10;;;;;;4199219;28;20044;-67
2024/01/09 06:29:37;;;;;;;17.40;10.30;;;-0.80;96.00;;;;;;4198838;28;20123;-67
2024/01/09 06:31:40;;;;;;;18.00;11.70;;;-0.80;96.00;;;;;;4198997;28;20113;-67
2024/01/09 06:33:43;;;;;;;19.33;11.80;;;-0.80;96.10;;;;;;4200014;28;20224;-66
2024/01/09 06:35:47;;;;;;;18.85;11.85;;;-0.80;96.30;;;;;;4199790;28;20052;-67
2024/01/09 06:37:51;;;;;;;20.45;11.60;;;-0.80;96.60;;;;;;4199610;28;20063;-68
2024/01/09 06:39:53;;;;;;;;;;;-0.80;96.60;;;;;;4201496;28;20048;-67
2024/01/09 06:41:55;;;;;;;16.83;10.52;;;-0.80;96.60;;;;;;4200378;28;20022;-67
2024/01/09 06:43:57;;;;;;;18.88;10.57;;;-0.80;96.50;;;;;;4199528;28;20072;-67
2024/01/09 06:45:59;;;;;;;18.80;9.95;;;-0.80;96.50;;;;;;4199770;28;20128;-68
2024/01/09 06:48:02;;;;;;;18.88;11.10;;;-0.80;96.30;;;;;;4201096;28;20068;-67
2024/01/09 06:50:05;;;;;;;18.90;11.50;;;-0.80;96.50;;;;;;4182051;28;20045;-67
2024/01/09 06:52:23;;;;;;;18.35;11.38;;;-0.80;96.50;;;;;;4182490;28;20053;-67
2024/01/09 06:54:25;;;;;;;17.33;11.00;;;-0.80;96.40;;;;;;4200989;28;20494;-68
2024/01/09 06:56:27;;;;;;;21.00;11.50;;;-0.80;96.30;;;;;;4200245;28;20052;-67
2024/01/09 06:58:29;;;;;;;17.40;11.32;;;-0.90;96.20;;;;;;4200321;28;20048;-67
2024/01/09 07:00:33;;;;;;;18.95;11.02;;;-0.90;96.20;;;;;;4201596;28;20401;-67
2024/01/09 07:02:35;;;;;;;18.77;12.02;;;-0.90;96.20;;;;;;4199868;28;20040;-67
2024/01/09 07:04:38;;;;;;;21.13;12.60;;;-0.80;96.30;;;;;;4183126;28;20045;-68
2024/01/09 07:06:40;;;;;;;18.73;12.00;;;-0.80;96.30;;;;;;4202700;28;20090;-67
2024/01/09 07:08:44;;;;;;;21.58;12.63;;;-0.90;96.20;;;;;;4202433;28;20047;-67
2024/01/09 07:10:46;;;;;;;20.35;12.15;;;-0.90;96.10;;;;;;4201808;28;20926;-67
2024/01/09 07:12:48;;;;;;;19.33;11.75;;;-0.90;96.20;;;;;;4201348;28;20055;-67
2024/01/09 07:14:50;;;;;;;21.48;13.05;;;-0.90;96.10;;;;;;4201851;28;20063;-68
2024/01/09 07:16:53;;;;;;;17.50;12.07;;;-0.90;96.20;;;;;;4201499;28;20060;-67
2024/01/09 07:18:55;;;;;;;18.85;11.55;;;-0.90;96.30;;;;;;4198724;28;20538;-67
2024/01/09 07:20:58;;;;;;;18.92;12.45;;;-0.90;96.20;;;;;;4199468;28;20048;-67
2024/01/09 07:23:02;;;;;;;17.38;11.77;;;-0.90;96.30;;;;;;4182559;28;20063;-66
2024/01/09 07:25:19;;;;;;;19.15;12.07;;;-1.00;96.30;;;;;;4199877;28;20056;-68
2024/01/09 07:27:21;;;;;;;24.30;12.38;;;-1.00;96.50;;;;;;4182411;28;20691;-67
2024/01/09 07:29:23;;;;;;;21.98;12.48;;;-1.00;96.40;;;;;;4200015;28;20049;-67
2024/01/09 07:31:26;;;;;;;21.90;12.57;;;-1.00;96.40;;;;;;4199647;28;20124;-69
2024/01/09 07:33:28;;;;;;;20.15;12.55;;;-1.00;96.50;;;;;;4199350;28;20051;-67
2024/01/09 07:35:37;;;;;;;20.42;12.10;;;-1.00;96.50;;;;;;4180200;28;20072;-67
2024/01/09 07:37:39;;;;;;;18.52;12.02;;;-1.00;96.60;;;;;;4197825;28;20056;-67
2024/01/09 07:39:41;;;;;;;19.60;12.57;;;-1.00;96.30;;;;;;4197959;28;20102;-66
2024/01/09 07:41:45;;;;;;;20.40;12.88;;;-0.90;96.40;;;;;;4198147;28;20044;-67
2024/01/09 07:43:48;;;;;;;20.80;12.45;;;-0.90;96.30;;;;;;4198302;28;20475;-67
2024/01/09 07:45:50;;;;;;;20.17;12.60;;;-0.90;96.50;;;;;;4197911;28;20064;-66
2024/01/09 07:47:52;;;;;;;22.63;13.30;;;-0.90;96.40;;;;;;4197753;28;20502;-68
2024/01/09 07:49:57;;;;;;;20.55;12.13;;;-0.90;96.30;;;;;;4179989;28;20083;-66
2024/01/09 07:52:00;;;;;;;19.23;12.30;;;-0.90;96.10;;;;;;4198080;28;20048;-66
2024/01/09 07:54:03;;;;;;;19.15;12.27;;;-0.90;96.10;;;;;;4198254;28;20434;-67
2024/01/09 07:56:28;;;;;;;15.67;10.20;;;-1.00;95.80;;;;;;4189819;28;20113;-67
2024/01/09 07:58:34;;;;;;;23.13;12.68;;;-1.00;95.80;;;;;;4182043;28;20496;-66
2024/01/09 08:00:36;;;;;;;23.52;13.93;;;-1.10;95.90;;;;;;4182063;28;20401;-67
2024/01/09 08:02:39;;;;;;;22.02;13.98;;;-1.00;96.00;;;;;;4181996;28;20415;-67
2024/01/09 08:04:41;;;;;;;23.55;13.60;;;-1.00;96.00;;;;;;4181117;28;20056;-66
2024/01/09 08:06:43;;;;;;;21.90;12.85;;;-1.10;95.70;;;;;;4182619;28;20075;-67
2024/01/09 08:08:45;;;;;;;20.70;12.88;;;-1.10;95.80;;;;;;4182310;28;20385;-67
2024/01/09 08:10:54;;;;;;;22.45;13.43;;;-1.10;96.00;;;;;;4166220;28;20045;-68
2024/01/09 08:12:56;;;;;;;20.88;13.75;;;-1.00;96.10;;;;;;4183735;28;20073;-67
2024/01/09 08:14:59;;;;;;;22.25;13.52;;;-1.00;96.00;;;;;;4182307;28;20045;-67
2024/01/09 08:17:02;;;;;;;21.48;12.70;;;-1.00;96.10;;;;;;4181621;28;20399;-67
2024/01/09 08:19:10;;;;;;;21.95;12.35;;;-1.00;95.70;;;;;;4178109;28;20045;-67
2024/01/09 08:21:16;;;;;;;19.55;12.35;;;-1.10;95.50;;;;;;4182402;28;20119;-67
2024/01/09 08:23:37;;;;;;;17.52;11.88;;;-1.10;95.40;;;;;;4181487;28;20080;-67
2024/01/09 08:25:53;;;;;;;19.55;12.27;;;-1.20;95.40;;;;;;4177128;28;20052;-67
2024/01/09 08:27:55;;;;;;;24.83;13.45;;;-1.20;95.40;;;;;;4181279;28;20064;-67
2024/01/09 08:29:59;;;;;;;22.42;12.77;;;-1.20;95.40;;;;;;4163645;28;20053;-66
2024/01/09 08:32:02;;;;;;;17.00;10.02;;;-1.20;95.20;;;;;;4181638;28;20049;-67
2024/01/09 08:34:05;;;;;;;22.13;12.45;;;-1.30;95.40;;;;;;4163946;28;20091;-66
2024/01/09 08:36:13;;;;;;;20.33;12.35;;;-1.30;95.40;;;;;;4163933;28;20123;-67
2024/01/09 08:38:17;;;;;;;22.20;12.75;;;-1.20;95.40;;;;;;4181694;28;20071;-67
2024/01/09 08:40:19;;;;;;;22.90;12.13;;;-1.30;95.10;;;;;;4164049;28;20472;-67
2024/01/09 08:42:21;;;;;;;19.80;12.68;;;-1.30;95.10;;;;;;4164390;28;20069;-67
2024/01/09 08:44:25;;;;;;;21.52;12.82;;;-1.30;95.10;;;;;;4182041;28;20132;-67
2024/01/09 08:46:28;;;;;;;21.33;12.55;;;-1.30;95.00;;;;;;4183718;28;20052;-68
2024/01/09 08:48:30;;;;;;;19.55;12.23;;;-1.40;94.80;;;;;;4184106;28;20053;-67
2024/01/09 08:50:33;;;;;;;22.90;13.25;;;-1.40;94.80;;;;;;4183603;28;20053;-67
2024/01/09 08:52:35;;;;;;;20.45;12.73;;;-1.40;95.00;;;;;;4166668;28;20544;-65
2024/01/09 08:54:37;;;;;;;18.85;12.27;;;-1.40;94.80;;;;;;4184487;28;20049;-64
2024/01/09 08:56:39;;;;;;;25.58;12.52;;;-1.40;94.80;;;;;;4196581;28;20044;-65
2024/01/09 08:58:42;;;;;;;20.27;12.07;;;-1.40;94.60;;;;;;4182007;28;20049;-65
2024/01/09 09:00:44;;;;;;;20.05;12.32;;;-1.40;94.60;;;;;;4199699;28;20123;-65
2024/01/09 09:02:51;;;;;;;19.80;12.15;;;-1.40;94.90;;;;;;4199887;28;20044;-65
2024/01/09 09:04:53;;;;;;;19.92;12.20;;;-1.40;94.40;;;;;;4200059;28;20049;-65
2024/01/09 09:06:55;;;;;;;21.83;12.73;;;-1.40;94.60;;;;;;4199634;28;20048;-63
2024/01/09 09:08:57;;;;;;;23.45;13.02;;;-1.40;94.70;;;;;;4200194;28;20127;-66
2024/01/09 09:10:59;;;;;;;19.65;12.82;;;-1.30;94.60;;;;;;4187153;28;20045;-69
2024/01/09 09:13:04;;;;;;;20.55;12.93;;;-1.40;94.30;;;;;;4203638;28;20058;-67
2024/01/09 09:15:07;;;;;;;25.83;12.68;;;-1.30;94.40;;;;;;4182734;28;20049;-66
2024/01/09 09:17:10;;;;;;;17.98;11.70;;;-1.30;94.40;;;;;;4182838;28;20053;-67
2024/01/09 09:19:13;;;;;;;21.48;12.80;;;-1.40;94.30;;;;;;4201576;28;20068;-67
2024/01/09 09:21:17;;;;;;;16.75;11.57;;;-1.30;94.20;;;;;;4201914;28;20040;-67
2024/01/09 09:23:19;;;;;;;23.05;12.48;;;-1.30;94.20;;;;;;4201758;28;20492;-67
2024/01/09 09:25:22;;;;;;;22.15;13.35;;;-1.20;94.10;;;;;;4183857;28;20049;-67
2024/01/09 09:27:24;;;;;;;21.30;13.38;;;-1.20;94.20;;;;;;4202562;28;20048;-66
2024/01/09 09:29:26;;;;;;;21.73;12.93;;;-1.20;94.10;;;;;;4201239;28;20063;-67
2024/01/09 09:31:39;;;;;;;28.35;12.30;;;-1.20;94.00;;;;;;4200247;28;20049;-68
2024/01/09 09:33:41;;;;;;;24.75;12.70;;;-1.20;93.80;;;;;;4200218;28;20838;-69
2024/01/09 09:35:47;;;;;;;23.52;12.57;;;-1.30;94.00;;;;;;4200098;28;20079;-66
2024/01/09 09:37:49;;;;;;;16.73;9.68;;;-1.30;94.00;;;;;;4199755;28;20049;-67
2024/01/09 09:39:52;;;;;;;25.10;12.88;;;-1.30;93.80;;;;;;4200225;28;20048;-67
2024/01/09 09:41:59;;;;;;;26.02;12.95;;;-1.30;93.90;;;;;;4199872;28;20493;-67
2024/01/09 09:44:03;;;;;;;22.88;12.60;;;-1.30;94.10;;;;;;4199555;28;20049;-66
2024/01/09 09:46:17;;;;;;;19.25;10.45;;;-1.20;94.30;;;;;;4199950;28;20071;-66
2024/01/09 09:48:23;;;;;;;19.60;12.80;;;-1.20;94.10;;;;;;4199567;28;20044;-67
2024/01/09 09:50:26;;;;;;;22.75;12.50;;;-1.20;94.10;;;;;;4199467;28;20131;-68
2024/01/09 09:52:32;;;;;;;17.80;11.80;;;-1.20;94.10;;;;;;4199592;28;20051;-67
2024/01/09 09:54:37;;;;;;;20.15;13.55;;;-1.20;94.00;;;;;;4199197;28;20059;-67
2024/01/09 09:56:40;;;;;;;21.05;12.38;;;-1.20;94.00;;;;;;4181579;28;20056;-67
2024/01/09 09:58:44;;;;;;;25.15;12.90;;;-1.30;94.20;;;;;;4199522;28;20044;-67
2024/01/09 10:00:47;;;;;;;21.17;13.70;;;-1.20;94.10;;;;;;4199737;28;20110;-67
2024/01/09 10:02:53;;;;;;;20.23;12.80;;;-1.20;94.10;;;;;;4182868;28;20169;-68
2024/01/09 10:05:01;;;;;;;19.25;12.70;;;-1.30;93.70;;;;;;4184181;28;20156;-66
2024/01/09 10:07:06;;;;;;;26.00;13.18;;;-1.30;94.00;;;;;;4181859;28;20479;-68
2024/01/09 10:09:15;;;;;;;22.48;12.10;;;-1.20;93.70;;;;;;4199192;28;20384;-67
2024/01/09 10:11:18;;;;;;;20.33;12.60;;;-1.20;93.80;;;;;;4199228;28;20045;-67
2024/01/09 10:13:22;;;;;;;23.38;13.63;;;-1.20;93.80;;;;;;4180783;28;20057;-67
2024/01/09 10:15:26;;;;;;;21.08;12.38;;;-1.20;93.60;;;;;;4182901;28;20637;-67
2024/01/09 10:17:28;;;;;;;20.30;12.30;;;-1.20;93.50;;;;;;4182471;28;20464;-67
2024/01/09 10:19:30;;;;;;;26.42;13.57;;;-1.30;93.40;;;;;;4182786;28;20049;-68
2024/01/09 10:21:32;;;;;;;20.13;13.02;;;-1.30;93.50;;;;;;4181295;28;20045;-68
2024/01/09 10:23:38;;;;;;;22.45;13.32;;;-1.30;93.80;;;;;;4182784;28;20073;-67
2024/01/09 10:25:41;;;;;;;20.75;12.43;;;-1.20;93.60;;;;;;4182854;28;20051;-67
2024/01/09 10:27:44;;;;;;;26.75;12.95;;;-1.20;93.90;;;;;;4182381;28;20045;-66
2024/01/09 10:29:50;;;;;;;24.05;13.52;;;-1.20;94.00;;;;;;4181210;28;20132;-66
2024/01/09 10:31:52;;;;;;;22.58;13.73;;;-1.10;93.90;;;;;;4182638;28;20059;-65
2024/01/09 10:33:54;;;;;;;24.95;14.45;;;-1.10;93.80;;;;;;4182384;28;20045;-67